createdAt,value
2022-10-31T00:00:12.624Z,19.33
2022-10-31T00:01:16.342Z,20.23
2022-10-31T00:02:18.968Z,18.88
2022-10-31T00:03:20.639Z,19.08
2022-10-31T00:04:23.176Z,20.98
2022-10-31T00:05:24.784Z,22.17
2022-10-31T00:06:27.601Z,21.45
2022-10-31T00:07:29.200Z,22.15
2022-10-31T00:08:33.060Z,18.45
2022-10-31T00:09:34.618Z,22.48
2022-10-31T00:10:39.727Z,18.85
2022-10-31T00:11:42.279Z,23.40
2022-10-31T00:12:43.832Z,23.08
2022-10-31T00:13:46.391Z,19.63
2022-10-31T00:14:47.930Z,25.42
2022-10-31T00:15:50.462Z,25.55
2022-10-31T00:16:51.997Z,26.10
2022-10-31T00:17:54.496Z,23.45
2022-10-31T00:18:58.432Z,22.60
2022-10-31T00:20:00.991Z,23.25
2022-10-31T00:21:03.688Z,24.00
2022-10-31T00:22:06.239Z,24.45
2022-10-31T00:23:08.019Z,24.77
2022-10-31T00:24:12.827Z,22.63
2022-10-31T00:25:14.614Z,21.55
2022-10-31T00:26:17.599Z,24.27
2022-10-31T00:27:19.166Z,20.52
2022-10-31T00:28:21.678Z,23.23
2022-10-31T00:29:24.259Z,24.30
2022-10-31T00:30:25.854Z,24.88
2022-10-31T00:31:28.563Z,24.42
2022-10-31T00:32:30.643Z,22.23
2022-10-31T00:33:35.208Z,25.98
2022-10-31T00:34:36.716Z,22.23
2022-10-31T00:35:39.192Z,22.80
2022-10-31T00:36:40.685Z,26.65
2022-10-31T00:37:43.183Z,29.92
2022-10-31T00:38:45.482Z,28.50
2022-10-31T00:39:50.456Z,31.38
2022-10-31T00:40:52.068Z,25.10
2022-10-31T00:41:54.559Z,22.58
2022-10-31T00:42:56.176Z,25.67
2022-10-31T00:43:58.814Z,21.00
2022-10-31T00:45:00.357Z,23.00
2022-10-31T00:46:03.321Z,25.42
2022-10-31T00:47:04.925Z,27.20
2022-10-31T00:48:07.683Z,26.55
2022-10-31T00:49:09.280Z,26.27
2022-10-31T00:50:11.849Z,23.15
2022-10-31T00:51:16.547Z,25.75
2022-10-31T00:52:18.081Z,26.45
2022-10-31T00:53:20.594Z,24.75
2022-10-31T00:54:22.270Z,32.08
2022-10-31T00:55:26.135Z,27.83
2022-10-31T00:56:27.704Z,20.92
2022-10-31T00:57:30.239Z,26.50
2022-10-31T00:58:31.784Z,25.58
2022-10-31T00:59:34.306Z,25.00
2022-10-31T01:00:35.895Z,24.48
2022-10-31T01:01:38.484Z,28.60
2022-10-31T01:02:40.219Z,29.58
2022-10-31T01:03:42.860Z,28.35
2022-10-31T01:04:45.212Z,26.75
2022-10-31T01:05:47.777Z,26.50
2022-10-31T01:06:49.338Z,29.20
2022-10-31T01:07:51.882Z,27.02
2022-10-31T01:08:53.427Z,28.92
2022-10-31T01:09:55.960Z,27.85
2022-10-31T01:11:04.640Z,32.28
2022-10-31T01:12:07.609Z,31.42
2022-10-31T01:13:09.267Z,26.35
2022-10-31T01:14:11.872Z,32.20
2022-10-31T01:15:15.520Z,25.00
2022-10-31T01:16:20.207Z,28.83
2022-10-31T01:17:21.838Z,28.10
2022-10-31T01:18:24.552Z,26.52
2022-10-31T01:19:26.099Z,27.50
2022-10-31T01:20:28.679Z,27.85
2022-10-31T01:21:30.617Z,26.50
2022-10-31T01:22:33.263Z,25.85
2022-10-31T01:23:35.593Z,29.95
2022-10-31T01:24:38.098Z,28.40
2022-10-31T01:25:39.667Z,28.27
2022-10-31T01:26:43.502Z,31.92
2022-10-31T01:27:45.409Z,30.50
2022-10-31T01:28:49.881Z,27.92
2022-10-31T01:29:51.427Z,27.02
2022-10-31T01:30:53.922Z,23.30
2022-10-31T01:31:56.452Z,25.27
2022-10-31T01:32:58.279Z,25.52
2022-10-31T01:34:01.415Z,27.60
2022-10-31T01:35:03.304Z,26.70
2022-10-31T01:36:17.384Z,28.77
2022-10-31T01:37:18.957Z,27.15
2022-10-31T01:38:21.509Z,26.23
2022-10-31T01:39:24.330Z,36.58
2022-10-31T01:40:30.211Z,28.08
2022-10-31T01:41:34.763Z,32.35
2022-10-31T01:42:37.678Z,25.15
2022-10-31T01:43:48.942Z,30.08
2022-10-31T01:44:57.254Z,32.10
2022-10-31T01:45:59.818Z,29.88
2022-10-31T01:47:05.106Z,27.20
2022-10-31T01:48:13.922Z,26.17
2022-10-31T01:49:19.445Z,29.17
2022-10-31T01:50:28.928Z,25.67
2022-10-31T01:51:34.923Z,30.33
2022-10-31T01:52:39.037Z,29.20
2022-10-31T01:53:42.283Z,26.60
2022-10-31T01:54:49.680Z,28.70
2022-10-31T01:55:52.313Z,30.02
2022-10-31T01:56:57.481Z,29.50
2022-10-31T01:58:08.624Z,29.42
2022-10-31T01:59:12.042Z,25.40
2022-10-31T02:00:15.419Z,28.38
2022-10-31T02:01:18.057Z,25.77
2022-10-31T02:02:21.006Z,29.15
2022-10-31T02:03:23.319Z,28.50
2022-10-31T02:04:27.047Z,26.42
2022-10-31T02:05:29.945Z,27.50
2022-10-31T02:06:37.238Z,25.25
2022-10-31T02:07:41.069Z,29.08
2022-10-31T02:08:44.577Z,31.13
2022-10-31T02:09:47.502Z,29.02
2022-10-31T02:10:50.050Z,28.65
2022-10-31T02:11:52.587Z,24.33
2022-10-31T02:12:57.470Z,28.05
2022-10-31T02:14:01.443Z,27.88
2022-10-31T02:15:05.088Z,28.02
2022-10-31T02:16:08.155Z,24.85
2022-10-31T02:17:09.843Z,30.83
2022-10-31T02:18:12.452Z,28.83
2022-10-31T02:19:19.076Z,26.98
2022-10-31T02:20:23.005Z,25.60
2022-10-31T02:21:31.402Z,24.27
2022-10-31T02:22:42.257Z,27.40
2022-10-31T02:24:08.055Z,29.13
2022-10-31T02:25:28.390Z,26.60
2022-10-31T02:26:57.453Z,28.33
2022-10-31T02:28:31.444Z,30.60
2022-10-31T02:30:03.253Z,24.95
2022-10-31T02:31:17.867Z,28.98
2022-10-31T02:32:22.453Z,29.17
2022-10-31T02:33:27.871Z,31.15
2022-10-31T02:34:33.991Z,28.13
2022-10-31T02:35:43.318Z,29.10
2022-10-31T02:36:51.653Z,28.23
2022-10-31T02:38:00.978Z,26.92
2022-10-31T02:39:11.702Z,23.02
2022-10-31T02:40:17.943Z,31.73
2022-10-31T02:41:21.216Z,27.08
2022-10-31T02:42:28.657Z,28.08
2022-10-31T02:43:35.723Z,31.13
2022-10-31T02:44:41.319Z,26.67
2022-10-31T02:45:45.871Z,31.83
2022-10-31T02:46:51.564Z,30.55
2022-10-31T02:47:55.150Z,27.35
2022-10-31T02:49:03.210Z,31.58
2022-10-31T02:50:09.247Z,32.00
2022-10-31T02:51:12.273Z,31.52
2022-10-31T02:52:22.163Z,34.60
2022-10-31T02:53:23.715Z,30.45
2022-10-31T02:54:27.315Z,40.20
2022-10-31T02:55:48.089Z,33.83
2022-10-31T02:56:51.281Z,28.60
2022-10-31T02:57:55.730Z,29.73
2022-10-31T02:59:01.142Z,30.35
2022-10-31T03:00:05.456Z,32.50
2022-10-31T03:01:17.253Z,33.72
2022-10-31T03:02:33.036Z,28.35
2022-10-31T03:03:38.102Z,27.13
2022-10-31T03:04:52.258Z,31.73
2022-10-31T03:05:56.407Z,26.98
2022-10-31T03:07:04.282Z,31.27
2022-10-31T03:08:11.471Z,29.50
2022-10-31T03:09:19.774Z,28.42
2022-10-31T03:10:31.717Z,29.42
2022-10-31T03:11:38.154Z,31.15
2022-10-31T03:12:44.480Z,29.33
2022-10-31T03:13:53.199Z,26.13
2022-10-31T03:14:58.891Z,31.85
2022-10-31T03:16:08.670Z,28.35
2022-10-31T03:17:14.342Z,30.58
2022-10-31T03:18:22.973Z,28.77
2022-10-31T03:19:28.763Z,26.27
2022-10-31T03:20:36.484Z,31.42
2022-10-31T03:21:41.261Z,34.22
2022-10-31T03:22:44.449Z,32.55
2022-10-31T03:23:47.367Z,28.05
2022-10-31T03:24:50.569Z,31.42
2022-10-31T03:25:52.902Z,30.23
2022-10-31T03:26:57.426Z,31.35
2022-10-31T03:28:00.688Z,29.02
2022-10-31T03:29:05.549Z,27.98
2022-10-31T03:30:08.664Z,27.70
2022-10-31T03:31:12.695Z,28.50
2022-10-31T03:32:17.579Z,31.25
2022-10-31T03:33:29.836Z,29.42
2022-10-31T03:34:32.052Z,29.23
2022-10-31T03:35:35.450Z,29.88
2022-10-31T03:36:39.406Z,31.88
2022-10-31T03:37:42.725Z,32.20
2022-10-31T03:38:46.378Z,31.15
2022-10-31T03:39:49.975Z,29.75
2022-10-31T03:40:53.021Z,28.92
2022-10-31T03:41:57.863Z,31.50
2022-10-31T03:43:03.230Z,36.90
2022-10-31T03:44:08.713Z,32.92
2022-10-31T03:45:12.830Z,33.40
2022-10-31T03:46:15.491Z,36.28
2022-10-31T03:47:17.169Z,30.90
2022-10-31T03:48:22.568Z,34.78
2022-10-31T03:49:24.317Z,38.40
2022-10-31T03:50:29.640Z,32.53
2022-10-31T03:51:34.621Z,33.53
2022-10-31T03:52:41.724Z,34.25
2022-10-31T03:53:47.098Z,31.38
2022-10-31T03:54:55.299Z,30.30
2022-10-31T03:56:00.691Z,32.83
2022-10-31T03:57:07.640Z,29.75
2022-10-31T03:58:12.036Z,27.90
2022-10-31T03:59:17.523Z,27.85
2022-10-31T04:00:19.620Z,31.80
2022-10-31T04:01:23.378Z,30.65
2022-10-31T04:02:29.236Z,36.45
2022-10-31T04:03:34.450Z,33.00
2022-10-31T04:04:36.533Z,34.17
2022-10-31T04:05:39.540Z,29.15
2022-10-31T04:06:43.405Z,33.30
2022-10-31T04:07:49.526Z,30.23
2022-10-31T04:08:53.908Z,29.00
2022-10-31T04:09:57.096Z,27.42
2022-10-31T04:11:00.219Z,27.85
2022-10-31T04:12:03.697Z,25.50
2022-10-31T04:13:08.291Z,29.38
2022-10-31T04:14:11.447Z,26.70
2022-10-31T04:15:13.671Z,30.10
2022-10-31T04:16:17.354Z,33.20
2022-10-31T04:17:21.456Z,25.45
2022-10-31T04:18:24.592Z,30.67
2022-10-31T04:19:28.431Z,28.35
2022-10-31T04:20:34.642Z,28.30
2022-10-31T04:21:37.199Z,35.45
2022-10-31T04:22:39.010Z,33.65
2022-10-31T04:23:41.553Z,30.13
2022-10-31T04:24:43.440Z,34.13
2022-10-31T04:25:45.953Z,33.00
2022-10-31T04:26:47.482Z,36.38
2022-10-31T04:27:49.992Z,36.28
2022-10-31T04:28:51.549Z,32.10
2022-10-31T04:29:54.091Z,31.27
2022-10-31T04:30:55.759Z,37.55
2022-10-31T04:31:58.312Z,34.00
2022-10-31T04:33:00.077Z,31.45
2022-10-31T04:34:02.817Z,25.58
2022-10-31T04:35:06.711Z,27.80
2022-10-31T04:36:09.600Z,25.50
2022-10-31T04:37:11.420Z,29.15
2022-10-31T04:38:13.973Z,29.95
2022-10-31T04:39:15.495Z,26.05
2022-10-31T04:40:18.144Z,26.90
2022-10-31T04:41:19.674Z,32.45
2022-10-31T04:42:22.194Z,28.08
2022-10-31T04:43:24.078Z,29.45
2022-10-31T04:44:26.691Z,25.50
2022-10-31T04:45:28.212Z,34.22
2022-10-31T04:46:30.844Z,34.05
2022-10-31T04:47:33.240Z,25.70
2022-10-31T04:48:35.899Z,27.30
2022-10-31T04:49:37.439Z,30.58
2022-10-31T04:50:43.339Z,30.45
2022-10-31T04:51:44.863Z,25.17
2022-10-31T04:52:48.382Z,28.95
2022-10-31T04:53:53.070Z,29.63
2022-10-31T04:54:55.579Z,28.52
2022-10-31T04:55:58.876Z,29.98
2022-10-31T04:57:01.395Z,32.33
2022-10-31T04:58:03.574Z,29.75
2022-10-31T04:59:06.555Z,25.83
2022-10-31T05:00:09.253Z,28.30
2022-10-31T05:01:12.112Z,26.10
2022-10-31T05:02:13.966Z,26.48
2022-10-31T05:03:16.596Z,31.65
2022-10-31T05:04:18.163Z,28.98
2022-10-31T05:05:22.308Z,30.92
2022-10-31T05:06:25.214Z,27.45
2022-10-31T05:07:27.798Z,28.23
2022-10-31T05:08:29.325Z,28.17
2022-10-31T05:09:33.951Z,29.98
2022-10-31T05:10:35.786Z,30.13
2022-10-31T05:11:38.367Z,31.02
2022-10-31T05:12:47.195Z,35.80
2022-10-31T05:13:49.789Z,28.17
2022-10-31T05:14:51.358Z,31.40
2022-10-31T05:15:53.856Z,31.08
2022-10-31T05:16:55.447Z,30.27
2022-10-31T05:17:58.873Z,31.80
2022-10-31T05:19:00.660Z,30.10
2022-10-31T05:20:03.171Z,35.75
2022-10-31T05:21:05.103Z,33.15
2022-10-31T05:22:08.967Z,31.40
2022-10-31T05:23:10.546Z,30.20
2022-10-31T05:24:13.112Z,31.00
2022-10-31T05:25:15.324Z,31.27
2022-10-31T05:26:18.468Z,31.13
2022-10-31T05:27:20.131Z,27.88
2022-10-31T05:28:22.688Z,27.67
2022-10-31T05:29:24.242Z,32.10
2022-10-31T05:30:29.351Z,29.60
2022-10-31T05:31:31.873Z,31.45
2022-10-31T05:32:38.175Z,28.45
2022-10-31T05:33:40.697Z,30.85
2022-10-31T05:34:42.270Z,29.95
2022-10-31T05:35:44.835Z,28.73
2022-10-31T05:36:46.354Z,28.80
2022-10-31T05:37:50.274Z,32.60
2022-10-31T05:38:51.810Z,28.30
2022-10-31T05:39:54.324Z,29.10
2022-10-31T05:40:58.489Z,31.30
2022-10-31T05:42:01.023Z,31.33
2022-10-31T05:43:03.037Z,27.13
2022-10-31T05:44:06.248Z,28.42
2022-10-31T05:45:09.345Z,33.72
2022-10-31T05:46:12.104Z,35.60
2022-10-31T05:47:13.669Z,28.10
2022-10-31T05:48:16.179Z,28.23
2022-10-31T05:49:18.321Z,27.50
2022-10-31T05:50:21.348Z,26.52
2022-10-31T05:51:23.004Z,28.25
2022-10-31T05:52:25.545Z,26.27
2022-10-31T05:53:29.539Z,27.80
2022-10-31T05:54:31.216Z,30.20
2022-10-31T05:55:33.856Z,31.10
2022-10-31T05:56:35.940Z,27.67
2022-10-31T05:57:38.570Z,29.98
2022-10-31T05:58:41.071Z,25.92
2022-10-31T05:59:42.717Z,30.88
2022-10-31T06:00:45.229Z,29.60
2022-10-31T06:01:46.899Z,28.25
2022-10-31T06:02:49.653Z,28.80
2022-10-31T06:03:51.237Z,32.58
2022-10-31T06:04:53.813Z,32.92
2022-10-31T06:05:56.354Z,27.67
2022-10-31T06:06:58.278Z,29.98
2022-10-31T06:08:01.212Z,28.90
2022-10-31T06:09:04.382Z,30.05
2022-10-31T06:10:08.462Z,30.70
2022-10-31T06:11:10.029Z,32.67
2022-10-31T06:12:12.592Z,32.33
2022-10-31T06:13:14.498Z,34.90
2022-10-31T06:14:17.050Z,31.92
2022-10-31T06:15:23.685Z,30.25
2022-10-31T06:16:26.875Z,30.00
2022-10-31T06:17:28.413Z,28.52
2022-10-31T06:18:30.943Z,35.40
2022-10-31T06:19:32.522Z,29.98
2022-10-31T06:20:35.611Z,29.13
2022-10-31T06:21:37.168Z,30.98
2022-10-31T06:22:39.686Z,29.25
2022-10-31T06:23:41.277Z,31.50
2022-10-31T06:24:45.153Z,26.75
2022-10-31T06:25:49.911Z,27.50
2022-10-31T06:26:52.413Z,25.92
2022-10-31T06:27:54.021Z,32.15
2022-10-31T06:29:00.041Z,27.33
2022-10-31T06:30:06.924Z,26.88
2022-10-31T06:31:09.657Z,34.85
2022-10-31T06:32:11.773Z,26.15
2022-10-31T06:33:14.249Z,26.73
2022-10-31T06:34:15.786Z,30.58
2022-10-31T06:35:18.491Z,30.80
2022-10-31T06:36:20.120Z,27.77
2022-10-31T06:37:22.743Z,27.17
2022-10-31T06:38:24.304Z,28.10
2022-10-31T06:39:26.806Z,28.75
2022-10-31T06:40:33.746Z,25.90
2022-10-31T06:41:37.491Z,29.85
2022-10-31T06:42:40.086Z,30.80
2022-10-31T06:43:41.679Z,32.25
2022-10-31T06:44:44.230Z,28.08
2022-10-31T06:45:46.841Z,30.88
2022-10-31T06:46:48.549Z,25.85
2022-10-31T06:48:15.550Z,25.42
2022-10-31T06:49:15.838Z,29.52
2022-10-31T06:50:17.540Z,28.60
2022-10-31T06:51:20.180Z,29.30
2022-10-31T06:52:21.788Z,29.38
2022-10-31T06:53:24.310Z,29.33
2022-10-31T06:54:25.923Z,30.80
2022-10-31T06:55:28.730Z,26.95
2022-10-31T06:56:31.665Z,27.63
2022-10-31T06:57:34.162Z,31.30
2022-10-31T06:58:35.756Z,23.67
2022-10-31T06:59:38.293Z,27.35
2022-10-31T07:00:39.934Z,27.20
2022-10-31T07:01:42.627Z,26.75
2022-10-31T07:02:44.248Z,27.17
2022-10-31T07:03:46.816Z,31.05
2022-10-31T07:04:48.400Z,34.40
2022-10-31T07:05:50.963Z,33.97
2022-10-31T07:06:52.812Z,29.77
2022-10-31T07:07:56.103Z,31.85
2022-10-31T07:08:58.689Z,31.13
2022-10-31T07:10:00.376Z,30.55
2022-10-31T07:11:02.968Z,26.45
2022-10-31T07:12:06.342Z,27.08
2022-10-31T07:13:12.802Z,29.55
2022-10-31T07:14:15.336Z,30.38
2022-10-31T07:15:16.960Z,31.33
2022-10-31T07:16:19.471Z,31.88
2022-10-31T07:17:28.826Z,27.23
2022-10-31T07:18:32.464Z,31.42
2022-10-31T07:19:34.021Z,30.55
2022-10-31T07:20:36.694Z,33.28
2022-10-31T07:21:39.241Z,28.42
2022-10-31T07:22:40.872Z,30.55
2022-10-31T07:23:43.423Z,31.35
2022-10-31T07:24:44.998Z,32.42
2022-10-31T07:25:47.552Z,31.20
2022-10-31T07:26:50.098Z,27.83
2022-10-31T07:27:54.042Z,25.83
2022-10-31T07:28:55.638Z,24.00
2022-10-31T07:29:58.124Z,28.33
2022-10-31T07:30:59.662Z,26.48
2022-10-31T07:32:02.607Z,25.13
2022-10-31T07:33:04.724Z,28.65
2022-10-31T07:34:07.229Z,26.63
2022-10-31T07:35:10.051Z,25.27
2022-10-31T07:36:12.853Z,26.80
2022-10-31T07:37:14.478Z,26.17
2022-10-31T07:38:17.330Z,25.83
2022-10-31T07:39:19.872Z,22.88
2022-10-31T07:40:22.071Z,24.58
2022-10-31T07:41:24.741Z,26.30
2022-10-31T07:42:26.315Z,30.65
2022-10-31T07:43:30.264Z,26.25
2022-10-31T07:44:31.845Z,32.20
2022-10-31T07:45:34.463Z,29.02
2022-10-31T07:46:36.025Z,25.90
2022-10-31T07:47:41.711Z,26.05
2022-10-31T07:48:44.293Z,27.42
2022-10-31T07:49:45.817Z,24.60
2022-10-31T07:50:48.740Z,26.98
2022-10-31T07:51:50.300Z,28.35
2022-10-31T07:53:00.550Z,24.98
2022-10-31T07:54:03.106Z,24.85
2022-10-31T07:55:05.594Z,27.02
2022-10-31T07:56:08.410Z,22.98
2022-10-31T07:57:09.997Z,26.08
2022-10-31T07:58:14.031Z,26.88
2022-10-31T07:59:16.947Z,24.88
2022-10-31T08:00:19.466Z,26.38
2022-10-31T08:01:22.001Z,24.30
2022-10-31T08:02:23.674Z,23.75
2022-10-31T08:03:26.211Z,25.17
2022-10-31T08:04:27.775Z,24.63
2022-10-31T08:05:31.091Z,27.58
2022-10-31T08:06:33.196Z,28.00
2022-10-31T08:07:38.922Z,27.10
2022-10-31T08:08:41.443Z,22.42
2022-10-31T08:09:43.073Z,21.95
2022-10-31T08:10:45.625Z,23.77
2022-10-31T08:11:47.149Z,25.55
2022-10-31T08:12:49.742Z,20.90
2022-10-31T08:13:52.263Z,26.65
2022-10-31T08:14:56.147Z,23.35
2022-10-31T08:16:04.418Z,25.20
2022-10-31T08:17:05.978Z,23.95
2022-10-31T08:18:13.549Z,22.80
2022-10-31T08:19:15.219Z,24.75
2022-10-31T08:20:17.852Z,20.33
2022-10-31T08:21:19.475Z,22.20
2022-10-31T08:22:24.907Z,24.25
2022-10-31T08:23:26.494Z,23.23
2022-10-31T08:24:29.135Z,23.60
2022-10-31T08:25:35.607Z,22.77
2022-10-31T08:26:41.018Z,21.50
2022-10-31T08:27:42.527Z,25.05
2022-10-31T08:28:45.064Z,22.77
2022-10-31T08:29:46.591Z,26.65
2022-10-31T08:30:50.531Z,25.75
2022-10-31T08:31:52.111Z,23.90
2022-10-31T08:33:02.391Z,22.67
2022-10-31T08:34:05.116Z,22.55
2022-10-31T08:35:07.177Z,28.58
2022-10-31T08:36:10.284Z,25.23
2022-10-31T08:37:11.916Z,23.27
2022-10-31T08:38:15.071Z,20.58
2022-10-31T08:39:16.881Z,23.92
2022-10-31T08:40:19.397Z,23.42
2022-10-31T08:41:22.040Z,23.30
2022-10-31T08:42:23.600Z,24.25
2022-10-31T08:43:26.114Z,18.77
2022-10-31T08:44:27.618Z,25.90
2022-10-31T08:45:31.061Z,25.60
2022-10-31T08:46:33.988Z,26.38
2022-10-31T08:47:36.516Z,23.98
2022-10-31T08:48:38.082Z,22.02
2022-10-31T08:49:40.609Z,25.02
2022-10-31T08:50:43.409Z,22.88
2022-10-31T08:51:49.341Z,23.60
2022-10-31T08:53:04.785Z,28.10
2022-10-31T08:54:08.290Z,24.50
2022-10-31T08:55:09.944Z,27.48
2022-10-31T08:56:12.473Z,27.02
2022-10-31T08:57:13.947Z,27.92
2022-10-31T08:58:18.310Z,24.48
2022-10-31T08:59:19.787Z,23.50
2022-10-31T09:00:22.269Z,26.65
2022-10-31T09:01:24.927Z,23.55
2022-10-31T09:02:28.004Z,24.15
2022-10-31T09:03:32.962Z,22.33
2022-10-31T09:04:34.626Z,24.60
2022-10-31T09:05:37.241Z,26.77
2022-10-31T09:06:46.454Z,23.35
2022-10-31T09:07:59.632Z,24.40
2022-10-31T09:09:02.477Z,24.70
2022-10-31T09:10:04.457Z,25.08
2022-10-31T09:11:07.415Z,24.00
2022-10-31T09:12:09.942Z,24.52
2022-10-31T09:13:13.309Z,27.80
2022-10-31T09:14:15.801Z,26.88
2022-10-31T09:15:17.311Z,27.27
2022-10-31T09:16:19.822Z,28.23
2022-10-31T09:17:21.368Z,23.27
2022-10-31T09:18:25.822Z,27.73
2022-10-31T09:19:28.317Z,23.85
2022-10-31T09:20:30.158Z,22.40
2022-10-31T09:21:32.653Z,26.17
2022-10-31T09:22:34.187Z,26.83
2022-10-31T09:23:36.719Z,28.77
2022-10-31T09:24:38.300Z,26.52
2022-10-31T09:25:43.092Z,24.85
2022-10-31T09:26:47.785Z,25.25
2022-10-31T09:27:50.349Z,24.40
2022-10-31T09:28:52.911Z,29.30
2022-10-31T09:29:54.467Z,31.65
2022-10-31T09:30:56.969Z,23.83
2022-10-31T09:31:58.502Z,23.35
2022-10-31T09:33:02.683Z,26.17
2022-10-31T09:34:05.677Z,24.40
2022-10-31T09:35:09.202Z,25.17
2022-10-31T09:36:12.234Z,27.58
2022-10-31T09:37:14.735Z,26.17
2022-10-31T09:38:19.996Z,26.52
2022-10-31T09:39:21.584Z,26.80
2022-10-31T09:40:24.400Z,23.73
2022-10-31T09:41:30.286Z,21.92
2022-10-31T09:42:56.721Z,22.48
2022-10-31T09:44:05.820Z,23.40
2022-10-31T09:45:13.496Z,26.38
2022-10-31T09:46:18.449Z,25.25
2022-10-31T09:47:28.371Z,26.80
2022-10-31T09:48:48.004Z,28.63
2022-10-31T09:50:08.626Z,24.52
2022-10-31T09:51:14.532Z,25.02
2022-10-31T09:52:21.146Z,26.30
2022-10-31T09:53:27.390Z,28.88
2022-10-31T09:54:36.813Z,28.95
2022-10-31T09:55:40.578Z,32.47
2022-10-31T09:56:43.283Z,22.45
2022-10-31T09:57:45.704Z,25.30
2022-10-31T09:58:49.582Z,29.88
2022-10-31T09:59:51.303Z,27.95
2022-10-31T10:00:55.538Z,28.55
2022-10-31T10:01:59.744Z,26.58
2022-10-31T10:03:08.796Z,25.10
2022-10-31T10:04:34.614Z,27.80
2022-10-31T10:05:46.622Z,31.02
2022-10-31T10:06:51.723Z,25.23
2022-10-31T10:07:56.356Z,26.35
2022-10-31T10:08:59.342Z,26.95
2022-10-31T10:10:02.940Z,24.48
2022-10-31T10:11:14.887Z,25.70
2022-10-31T10:12:21.350Z,27.33
2022-10-31T10:13:35.203Z,26.65
2022-10-31T10:14:51.823Z,25.58
2022-10-31T10:16:07.565Z,32.17
2022-10-31T10:17:19.044Z,23.95
2022-10-31T10:18:27.462Z,25.33
2022-10-31T10:19:41.234Z,21.85
2022-10-31T10:20:57.018Z,25.05
2022-10-31T10:22:04.347Z,24.55
2022-10-31T10:23:33.885Z,24.88
2022-10-31T10:24:50.820Z,31.30
2022-10-31T10:25:57.605Z,23.02
2022-10-31T10:27:08.113Z,25.88
2022-10-31T10:28:20.589Z,23.35
2022-10-31T10:29:32.005Z,25.13
2022-10-31T10:30:38.219Z,27.23
2022-10-31T10:31:43.760Z,26.65
2022-10-31T10:32:51.075Z,22.80
2022-10-31T10:34:02.115Z,31.15
2022-10-31T10:35:12.322Z,27.25
2022-10-31T10:36:19.949Z,26.40
2022-10-31T10:37:30.093Z,21.08
2022-10-31T10:38:38.359Z,27.13
2022-10-31T10:39:42.005Z,24.55
2022-10-31T10:40:44.692Z,23.35
2022-10-31T10:42:03.755Z,29.02
2022-10-31T10:43:26.246Z,26.27
2022-10-31T10:44:46.108Z,22.83
2022-10-31T10:46:11.866Z,25.17
2022-10-31T10:47:32.373Z,23.40
2022-10-31T10:48:46.755Z,22.65
2022-10-31T10:49:51.422Z,26.10
2022-10-31T10:50:54.653Z,26.17
2022-10-31T10:52:19.557Z,23.63
2022-10-31T10:53:37.835Z,25.48
2022-10-31T10:54:59.112Z,22.98
2022-10-31T10:56:07.306Z,25.15
2022-10-31T10:57:20.551Z,22.55
2022-10-31T10:58:23.104Z,27.30
2022-10-31T10:59:24.735Z,23.58
2022-10-31T11:00:29.303Z,23.42
2022-10-31T11:01:32.024Z,22.65
2022-10-31T11:02:33.839Z,25.65
2022-10-31T11:03:37.670Z,25.83
2022-10-31T11:04:40.898Z,22.35
2022-10-31T11:05:46.713Z,26.15
2022-10-31T11:06:59.356Z,21.75
2022-10-31T11:08:01.940Z,22.73
2022-10-31T11:09:09.806Z,25.02
2022-10-31T11:10:15.848Z,25.50
2022-10-31T11:11:26.536Z,21.85
2022-10-31T11:12:31.332Z,23.80
2022-10-31T11:13:33.953Z,20.60
2022-10-31T11:14:45.051Z,27.25
2022-10-31T11:15:58.376Z,22.80
2022-10-31T11:17:09.565Z,22.75
2022-10-31T11:18:23.051Z,22.75
2022-10-31T11:19:27.340Z,26.48
2022-10-31T11:20:33.043Z,24.65
2022-10-31T11:21:35.644Z,22.05
2022-10-31T11:22:39.888Z,25.63
2022-10-31T11:23:42.554Z,24.88
2022-10-31T11:24:44.213Z,18.77
2022-10-31T11:25:51.649Z,21.92
2022-10-31T11:26:54.594Z,22.77
2022-10-31T11:28:03.502Z,25.27
2022-10-31T11:29:07.338Z,22.45
2022-10-31T11:30:14.231Z,22.70
2022-10-31T11:31:16.830Z,25.33
2022-10-31T11:32:22.461Z,23.05
2022-10-31T11:33:29.718Z,23.10
2022-10-31T11:34:34.295Z,20.65
2022-10-31T11:35:41.182Z,24.30
2022-10-31T11:36:45.058Z,22.02
2022-10-31T11:37:51.537Z,21.60
2022-10-31T11:38:53.927Z,20.67
2022-10-31T11:39:58.039Z,20.83
2022-10-31T11:41:04.668Z,22.02
2022-10-31T11:42:09.054Z,26.08
2022-10-31T11:43:16.918Z,21.10
2022-10-31T11:44:21.347Z,19.42
2022-10-31T11:45:29.958Z,23.85
2022-10-31T11:46:35.726Z,21.15
2022-10-31T11:47:38.546Z,19.58
2022-10-31T11:48:40.401Z,24.85
2022-10-31T11:49:44.780Z,23.60
2022-10-31T11:50:50.010Z,18.92
2022-10-31T11:51:55.203Z,21.05
2022-10-31T11:52:59.101Z,20.35
2022-10-31T11:54:03.477Z,20.45
2022-10-31T11:55:17.548Z,26.85
2022-10-31T11:56:19.510Z,22.70
2022-10-31T11:57:27.217Z,21.30
2022-10-31T11:58:28.813Z,18.52
2022-10-31T11:59:32.803Z,21.52
2022-10-31T12:00:38.501Z,24.38
2022-10-31T12:01:44.175Z,23.48
2022-10-31T12:02:47.885Z,21.17
2022-10-31T12:03:56.333Z,23.52
2022-10-31T12:05:03.574Z,23.70
2022-10-31T12:06:08.953Z,33.10
2022-10-31T12:07:14.624Z,24.83
2022-10-31T12:08:17.535Z,22.00
2022-10-31T12:09:23.508Z,21.70
2022-10-31T12:10:32.526Z,25.23
2022-10-31T12:11:46.723Z,28.52
2022-10-31T12:12:58.931Z,20.70
2022-10-31T12:14:15.445Z,23.75
2022-10-31T12:15:38.575Z,23.20
2022-10-31T12:16:56.139Z,20.90
2022-10-31T12:18:21.809Z,22.63
2022-10-31T12:19:33.169Z,25.95
2022-10-31T12:20:43.003Z,28.98
2022-10-31T12:22:00.832Z,24.60
2022-10-31T12:23:06.282Z,22.92
2022-10-31T12:24:16.804Z,29.52
2022-10-31T12:25:32.206Z,28.35
2022-10-31T12:26:49.628Z,20.88
2022-10-31T12:28:17.447Z,27.38
2022-10-31T12:29:30.469Z,23.42
2022-10-31T12:30:45.586Z,26.77
2022-10-31T12:31:58.244Z,29.58
2022-10-31T12:33:15.429Z,31.27
2022-10-31T12:34:48.790Z,24.17
2022-10-31T12:36:00.064Z,23.30
2022-10-31T12:37:06.218Z,21.08
2022-10-31T12:38:18.728Z,28.65
2022-10-31T12:39:26.943Z,28.05
2022-10-31T12:40:37.958Z,24.90
2022-10-31T12:41:54.267Z,23.08
2022-10-31T12:43:05.640Z,20.63
2022-10-31T12:44:11.608Z,22.17
2022-10-31T12:45:38.164Z,27.35
2022-10-31T12:46:57.355Z,25.38
2022-10-31T12:48:07.649Z,25.95
2022-10-31T12:49:41.412Z,23.83
2022-10-31T12:50:52.810Z,23.65
2022-10-31T12:52:05.465Z,33.85
2022-10-31T12:53:16.158Z,26.17
2022-10-31T12:54:39.804Z,29.13
2022-10-31T12:55:50.287Z,27.52
2022-10-31T12:56:56.321Z,28.13
2022-10-31T12:58:01.963Z,27.45
2022-10-31T12:59:11.593Z,25.30
2022-10-31T13:00:16.907Z,25.05
2022-10-31T13:01:21.531Z,29.25
2022-10-31T13:02:29.037Z,24.42
2022-10-31T13:03:36.605Z,27.50
2022-10-31T13:04:44.509Z,24.17
2022-10-31T13:05:49.299Z,25.33
2022-10-31T13:06:56.224Z,25.02
2022-10-31T13:08:02.484Z,23.98
2022-10-31T13:09:07.636Z,23.23
2022-10-31T13:10:18.086Z,26.98
2022-10-31T13:11:23.657Z,25.80
2022-10-31T13:12:26.600Z,31.63
2022-10-31T13:13:33.059Z,24.23
2022-10-31T13:14:38.010Z,31.00
2022-10-31T13:15:48.948Z,31.52
2022-10-31T13:16:51.222Z,30.85
2022-10-31T13:17:56.477Z,24.58
2022-10-31T13:19:01.336Z,23.17
2022-10-31T13:20:18.479Z,26.75
2022-10-31T13:21:24.106Z,25.67
2022-10-31T13:22:28.451Z,28.02
2022-10-31T13:25:00.947Z,24.20
2022-10-31T13:26:08.814Z,30.00
2022-10-31T13:27:16.261Z,30.17
2022-10-31T13:28:26.882Z,32.35
2022-10-31T13:29:33.190Z,31.05
2022-10-31T13:30:38.186Z,27.98
2022-10-31T13:31:42.222Z,28.10
2022-10-31T13:32:48.303Z,29.40
2022-10-31T13:33:52.783Z,26.50
2022-10-31T13:34:57.793Z,28.88
2022-10-31T13:36:11.337Z,33.10
2022-10-31T13:37:20.205Z,28.75
2022-10-31T13:38:24.498Z,32.92
2022-10-31T13:39:34.975Z,30.50
2022-10-31T13:40:44.736Z,31.88
2022-10-31T13:41:49.599Z,28.05
2022-10-31T13:42:57.988Z,29.42
2022-10-31T13:44:02.047Z,28.50
2022-10-31T13:45:15.419Z,30.25
2022-10-31T13:46:25.833Z,30.95
2022-10-31T13:47:28.468Z,30.92
2022-10-31T13:48:42.025Z,30.95
2022-10-31T13:49:43.622Z,30.35
2022-10-31T13:50:58.412Z,32.63
2022-10-31T13:52:08.304Z,29.50
2022-10-31T13:53:14.146Z,26.20
2022-10-31T13:54:22.513Z,32.28
2022-10-31T13:55:38.172Z,29.60
2022-10-31T13:56:41.915Z,27.27
2022-10-31T13:57:45.501Z,32.50
2022-10-31T13:59:21.319Z,31.27
2022-10-31T14:00:25.351Z,29.85
2022-10-31T14:01:29.753Z,34.78
2022-10-31T14:02:33.008Z,31.63